Leeds, Maine
Current Conditions -  °F | °C
As of 1:53 PM on Tuesday 21 Oct 2014 (Local Time) from KAUG Reporting Station
Light Rain Light Rain  
Wind Chill: 45°   Ceiling: 1700
Heat Index: 48°   Visibility: 10mi
Dew Point: 46°   Wind: 7mph
Humidity: 93%   Direction: 10°N
Pressure: 30.04"   Gusts: NA
Location:  44.35°N, 70.12°W
Report Text: KAUG 211753Z AUTO 01006KT 10SM -RA BKN017 BKN025 OVC030 09/08 A3004 RMK AO2 SLP174 P0002 60011 T00890078 10094 20061 58013
Loading
Personal Weather Stations






























Interactive Weather Map
Tropical Storm Tracking
New forecast layout! Learn more

10-Day Weather Forecast

Advertisements
Track Severe Weather on mobile